Ferrara Airport

LIPF · Emilia-Romagna, 意大利

使用的METAR站距离机场40 km。
罗盘
风向 的 风向 100° 费拉拉 9L/27R
风: 5 kt, 2 beaufort

5 kt

改变
0 ft 1.000 2.000 3.000 4.000 5.000
Cloud Cloud Cloud Cloud Cloud Cloud
BKN 5.000
METAR LIPE 012050Z 10005KT 9999 BKN050 11/10 Q1005

METAR 费拉拉 - LIPF

费拉拉是,意大利中的小机场。 该机场位于纬度44,81242和经度11,61368。 该机场有2条跑道: 9L/27R 和 9R/27L. 本场的ICAO机场代码为LIPF。 机场在Milano FIR中。

该航空气象观测是针对Bologna Guglielmo Marconi Airport在2024年3月1日 21:50, 当地时间进行的。

机场观察

风向为100°,速度为5 kt。

可见度为10 km 或者更多。

有碎云在5.000 ft的高度。 破损或更高的上限为5.000 ft。

温度和风寒是11 °C。 露点为10 °C,相对湿度为94%。 海平面上的气压为1005 hPa (QNH)。

白天

今天,太阳从06:50升起,在18:01降落。 这适用于费拉拉,世界夏令时可能有所不同。 当地时间与世界标准时间之间的时差为+1 小时。 当前,没有夏令时有效。

公司介绍

我们没有关于这个机场的公司信息。

体会

到Vliegles.nl去找飞行课程,跳伞和其他飞行体验。 浏览页面,了解费拉拉附近所有可用的活动。 你也可以使用搜索功能来寻找你所在地附近的特定飞行课程、跳伞或其他飞行体验。

跑道

Id 标题 侧风 逆风 侧风 %
9L/27R 103°-283° 5 kt 5 %
9R/27L 102°-282° 5 kt 3 %

逆风成分最大的方向会被突出显示,并用于横风计算。 这并不一定意味着这个方向在使用。

乌云

5.000 ft BKN 碎云

温度 & 天气

温度 11 °C
露点 10 °C
相对湿度 94%
Kp-index 0 (0-9)

白天

日出
06:51 (8:27)
中午
12:27
日落
18:02

小工具

你想在你的网站上有一个关于费拉拉的当前航空天气(METAR)的小部件吗?

显示HTML代码
?>